KELZ/ELZ METAR and TAF weather

Enter ICAO airport designator
Station Type Date Time Source
KELZ METAR 2020/11/28 19:56 UTC NOAA

KELZ 281956Z AUTO 27009KT 10SM CLR 03/M04 A3004 RMK AO2 SLP187 T00281039 TSNO


Station Type Date Time Source
KELZ Decoded METAR 2020/11/28 19:56 UTC NOAA

WELLSVILLE MUNICIPAL AIRPORT, NY, United States (KELZ) 42-06N 077-60W 646M
Nov 28, 2020 - 02:56 PM EST / 2020.11.28 1956 UTC
Wind: from the W (270 degrees) at 10 MPH (9 KT):0
Visibility: 10 mile(s):0
Sky conditions: clear
Temperature: 37.0 F (2.8 C)
Dew Point: 25.0 F (-3.9 C)
Relative Humidity: 61%
Pressure (altimeter): 30.04 in. Hg (1017 hPa)
ob: KELZ 281956Z AUTO 27009KT 10SM CLR 03/M04 A3004 RMK AO2 SLP187 T00281039 TSNO
cycle: 20

Station Type Date Time Source
KELZ TAF UTC NOAA

Error!

Example: see airport list